Time;durP1;ratioP1;P1;durP2;ratioP2;P2;SDS_P1;SDS_P2;PMS_P1;PMS_P2;Temp;Humidity;BMP_temperature;BMP_pressure;BME280_temperature;BME280_humidity;BME280_pressure;Samples;Min_cycle;Max_cycle;Signal;HPM_P1;HPM_P2
2021/11/06 00:00:25;;;;;;;8.13;2.97;;;;;;;8.63;86.07;102827.31;4967665;28;20026;-66
2021/11/06 00:02:51;;;;;;;8.73;2.90;;;;;;;8.61;85.85;102826.41;4955451;29;20110;-67
2021/11/06 00:05:16;;;;;;;7.57;3.30;;;;;;;8.63;85.94;102829.94;4969331;28;20026;-66
2021/11/06 00:07:42;;;;;;;7.35;3.13;;;;;;;8.63;86.12;102832.59;4975239;28;20023;-65
2021/11/06 00:10:09;;;;;;;10.10;3.45;;;;;;;8.59;86.03;102825.53;4973804;28;20035;-66
2021/11/06 00:12:35;;;;;;;10.57;3.60;;;;;;;8.60;86.43;102834.34;4955712;28;20022;-65
2021/11/06 00:15:01;;;;;;;12.80;3.50;;;;;;;8.58;86.32;102825.56;4961034;28;20030;-66
2021/11/06 00:17:26;;;;;;;7.95;3.30;;;;;;;8.55;86.69;102828.22;4955674;28;20564;-66
2021/11/06 00:19:52;;;;;;;9.98;3.50;;;;;;;8.52;87.48;102831.75;4955257;29;20026;-66
2021/11/06 00:22:17;;;;;;;10.20;3.70;;;;;;;8.50;87.28;102836.16;4956391;28;20063;-66
2021/11/06 00:24:42;;;;;;;9.55;3.92;;;;;;;8.49;87.44;102823.81;4959124;28;20525;-66
2021/11/06 00:27:08;;;;;;;12.15;4.05;;;;;;;8.51;87.86;102837.91;4974637;28;20054;-66
2021/11/06 00:29:33;;;;;;;9.73;3.88;;;;;;;8.50;87.74;102838.78;4974207;28;20023;-66
2021/11/06 00:31:58;;;;;;;12.57;4.47;;;;;;;8.50;87.88;102826.47;4974732;28;20054;-65
2021/11/06 00:34:24;;;;;;;12.23;4.38;;;;;;;8.49;87.70;102837.03;4974260;28;20567;-66
2021/11/06 00:36:50;;;;;;;9.23;4.18;;;;;;;8.48;88.18;102827.38;4972980;28;20468;-66
2021/11/06 00:39:15;;;;;;;12.07;5.30;;;;;;;8.50;88.38;102834.41;4974389;28;20038;-66
2021/11/06 00:41:41;;;;;;;8.55;3.70;;;;;;;8.50;88.39;102833.50;4974374;28;20387;-66
2021/11/06 00:44:06;;;;;;;10.93;3.90;;;;;;;8.49;88.74;102837.94;4958425;28;20122;-66
2021/11/06 00:46:32;;;;;;;9.73;4.05;;;;;;;8.48;88.80;102825.59;4955079;29;20050;-66
2021/11/06 00:48:57;;;;;;;8.73;4.05;;;;;;;8.48;88.75;102828.25;4955651;28;20027;-66
2021/11/06 00:51:23;;;;;;;9.65;3.80;;;;;;;8.51;88.84;102827.34;4954897;29;20039;-66
2021/11/06 00:53:48;;;;;;;9.48;3.92;;;;;;;8.50;89.08;102828.22;4956231;28;20042;-66
2021/11/06 00:56:14;;;;;;;11.95;4.45;;;;;;;8.48;89.28;102830.88;4954820;29;20109;-65
2021/11/06 00:58:39;;;;;;;9.20;4.40;;;;;;;8.47;89.54;102828.25;4955866;28;20032;-66
2021/11/06 01:01:04;;;;;;;9.88;4.15;;;;;;;8.44;89.80;102833.50;4955689;28;20027;-68
2021/11/06 01:03:29;;;;;;;8.85;4.38;;;;;;;8.43;89.94;102824.72;4955553;28;20567;-66
2021/11/06 01:05:55;;;;;;;12.18;4.25;;;;;;;8.41;90.12;102826.47;4954545;29;20110;-66
2021/11/06 01:08:20;;;;;;;9.48;4.45;;;;;;;8.42;89.83;102830.88;4973137;28;20131;-66
2021/11/06 01:10:45;;;;;;;14.70;4.60;;;;;;;8.44;89.98;102825.56;4972380;28;20027;-66
2021/11/06 01:13:12;;;;;;;7.35;3.83;;;;;;;8.39;90.30;102824.72;4974070;28;20904;-66
2021/11/06 01:15:37;;;;;;;10.68;4.57;;;;;;;8.40;90.14;102816.81;4972194;28;20031;-65
2021/11/06 01:18:03;;;;;;;11.88;4.03;;;;;;;8.39;90.38;102817.69;4968145;28;20399;-65
2021/11/06 01:20:28;;;;;;;13.13;4.65;;;;;;;8.39;90.34;102807.13;4955419;28;20023;-66
2021/11/06 01:22:54;;;;;;;11.10;4.85;;;;;;;8.41;90.19;102810.63;4954399;29;20114;-66
2021/11/06 01:25:19;;;;;;;12.18;4.55;;;;;;;8.44;90.15;102807.09;4955278;28;20023;-66
2021/11/06 01:27:45;;;;;;;9.60;4.07;;;;;;;8.45;89.68;102817.66;4954520;29;20032;-65
2021/11/06 01:30:12;;;;;;;9.10;4.57;;;;;;;8.45;89.80;102812.38;4955516;28;20026;-65
2021/11/06 01:32:38;;;;;;;13.38;4.93;;;;;;;8.47;90.03;102808.00;4954577;29;20114;-66
2021/11/06 01:35:05;;;;;;;9.82;5.28;;;;;;;8.45;89.79;102809.75;4954118;29;20163;-66
2021/11/06 01:37:31;;;;;;;12.40;4.68;;;;;;;8.45;89.47;102819.41;4955453;28;20034;-66
2021/11/06 01:39:57;;;;;;;12.27;5.07;;;;;;;8.41;90.08;102812.41;4954324;29;20484;-65
2021/11/06 01:42:25;;;;;;;10.57;4.82;;;;;;;8.44;89.83;102815.00;4955647;28;20051;-67
2021/11/06 01:44:50;;;;;;;11.52;4.75;;;;;;;8.44;89.79;102807.09;4954224;29;20031;-65
2021/11/06 01:47:15;;;;;;;9.13;4.57;;;;;;;8.42;90.50;102812.38;4955664;28;20031;-66
2021/11/06 01:49:41;;;;;;;9.30;4.38;;;;;;;8.39;90.34;102809.78;4954446;29;20038;-66
2021/11/06 01:52:07;;;;;;;9.50;4.45;;;;;;;8.40;90.24;102805.34;4955324;28;20031;-65
2021/11/06 01:54:32;;;;;;;11.23;4.85;;;;;;;8.38;90.44;102802.72;4954121;29;20031;-65
2021/11/06 01:56:59;;;;;;;11.35;4.97;;;;;;;8.39;90.58;102800.94;4955151;28;20023;-65
2021/11/06 01:59:25;;;;;;;9.93;4.30;;;;;;;8.40;90.37;102815.91;4954323;29;20112;-66
2021/11/06 02:01:50;;;;;;;12.32;4.80;;;;;;;8.36;90.54;102805.38;4954547;28;20037;-65
2021/11/06 02:04:16;;;;;;;10.68;4.50;;;;;;;8.35;90.54;102802.72;4954801;28;20047;-66
2021/11/06 02:06:42;;;;;;;11.02;4.85;;;;;;;8.36;90.74;102799.19;4953715;29;20451;-65
2021/11/06 02:09:07;;;;;;;16.75;5.30;;;;;;;8.35;91.09;102795.69;4956148;28;20032;-66
2021/11/06 02:11:37;;;;;;;10.55;5.32;;;;;;;8.34;91.16;102793.94;4971779;28;20035;-66
2021/11/06 02:14:03;;;;;;;13.70;5.47;;;;;;;8.33;91.41;102796.59;4961262;28;20357;-68
2021/11/06 02:16:29;;;;;;;15.13;5.57;;;;;;;8.31;91.80;102793.97;4954991;28;20447;-67
2021/11/06 02:18:54;;;;;;;11.80;5.85;;;;;;;8.31;91.63;102795.72;4955013;28;20065;-68
2021/11/06 02:21:20;;;;;;;11.00;5.50;;;;;;;8.32;92.12;102781.63;4953777;29;20373;-65
2021/11/06 02:23:49;;;;;;;12.13;5.80;;;;;;;8.35;91.78;102785.16;4954934;28;20059;-66
2021/11/06 02:26:18;;;;;;;17.23;7.15;;;;;;;8.36;92.15;102794.81;4953935;29;20119;-65
2021/11/06 02:28:46;;;;;;;14.30;6.40;;;;;;;8.37;92.54;102790.41;4955002;28;20058;-65
2021/11/06 02:31:12;;;;;;;13.88;6.35;;;;;;;8.41;92.08;102786.88;4953922;29;20476;-67
2021/11/06 02:33:37;;;;;;;13.05;6.40;;;;;;;8.40;91.67;102800.06;4954176;29;20069;-65
2021/11/06 02:36:03;;;;;;;13.80;6.90;;;;;;;8.44;92.13;102796.53;4953455;28;20391;-65
2021/11/06 02:38:29;;;;;;;12.07;6.60;;;;;;;8.42;92.34;102795.69;4957966;28;20077;-66
2021/11/06 02:40:56;;;;;;;15.27;6.90;;;;;;;8.41;92.67;102797.41;4958099;28;20114;-66
2021/11/06 02:43:21;;;;;;;11.98;6.60;;;;;;;8.43;93.23;102793.03;4957471;28;20023;-66
2021/11/06 02:45:47;;;;;;;14.38;7.07;;;;;;;8.47;92.36;102796.56;4957404;29;20035;-66
2021/11/06 02:48:12;;;;;;;13.63;7.07;;;;;;;8.47;92.82;102792.16;4958321;28;20028;-66
2021/11/06 02:50:38;;;;;;;13.00;7.35;;;;;;;8.47;92.71;102788.66;4958272;28;20055;-66
2021/11/06 02:53:03;;;;;;;15.93;7.60;;;;;;;8.44;93.40;102792.16;4956871;29;20419;-66
2021/11/06 02:55:29;;;;;;;15.35;7.40;;;;;;;8.46;93.37;102784.25;4956760;29;20097;-66
2021/11/06 02:57:55;;;;;;;14.25;6.95;;;;;;;8.45;93.52;102777.16;4958045;28;20034;-66
2021/11/06 03:00:20;;;;;;;19.50;8.52;;;;;;;8.44;93.43;102785.97;4957995;28;20027;-65
2021/11/06 03:02:46;;;;;;;15.23;7.50;;;;;;;8.44;94.00;102791.25;4973830;28;20038;-65
2021/11/06 03:05:13;;;;;;;17.40;7.93;;;;;;;8.42;93.82;102785.97;4976218;28;20520;-66
2021/11/06 03:07:39;;;;;;;17.48;8.10;;;;;;;8.40;94.41;102790.41;4975888;28;20110;-65
2021/11/06 03:10:07;;;;;;;14.55;8.02;;;;;;;8.39;94.69;102791.28;4972787;28;20038;-66
2021/11/06 03:12:34;;;;;;;18.65;8.40;;;;;;;8.37;95.06;102804.47;4956814;29;20448;-65
2021/11/06 03:14:59;;;;;;;17.48;8.20;;;;;;;8.37;95.25;102804.47;4956910;29;20027;-66
2021/11/06 03:17:24;;;;;;;15.00;8.80;;;;;;;8.35;95.89;102800.97;4956968;29;20027;-66
2021/11/06 03:19:50;;;;;;;19.95;9.25;;;;;;;8.36;95.90;102800.09;4957892;28;20027;-68
2021/11/06 03:22:15;;;;;;;16.00;8.73;;;;;;;8.31;95.87;102785.16;4968230;28;20522;-65
2021/11/06 03:24:40;;;;;;;18.08;8.85;;;;;;;8.30;96.11;102786.03;4958468;28;20028;-66
2021/11/06 03:27:06;;;;;;;18.17;9.20;;;;;;;8.33;96.55;102784.25;4956402;29;20079;-65
2021/11/06 03:29:32;;;;;;;18.52;9.20;;;;;;;8.33;96.33;102783.41;4956492;28;20506;-65
2021/11/06 03:31:58;;;;;;;23.45;9.18;;;;;;;8.31;97.03;102791.31;4958361;28;20439;-65
2021/11/06 03:34:23;;;;;;;19.40;10.13;;;;;;;8.30;96.77;102779.00;4938835;29;20050;-65
2021/11/06 03:36:49;;;;;;;21.27;9.95;;;;;;;8.33;97.12;102780.75;4956128;29;20031;-65
2021/11/06 03:39:15;;;;;;;17.52;9.98;;;;;;;8.35;97.06;102784.25;4956011;29;20118;-65
2021/11/06 03:41:41;;;;;;;22.98;10.05;;;;;;;8.37;97.02;102778.06;4957380;28;20035;-67
2021/11/06 03:44:07;;;;;;;19.38;10.35;;;;;;;8.41;96.79;102768.38;4957329;28;20058;-65
2021/11/06 03:46:33;;;;;;;20.35;10.00;;;;;;;8.44;97.46;102784.22;4956391;29;20027;-68
2021/11/06 03:48:58;;;;;;;18.48;9.98;;;;;;;8.46;97.08;102774.53;4956309;28;20058;-64
2021/11/06 03:51:24;;;;;;;23.35;10.75;;;;;;;8.47;97.52;102773.66;4959687;28;20066;-65
2021/11/06 03:53:50;;;;;;;22.05;11.10;;;;;;;8.50;97.35;102765.75;4973500;28;20050;-65
2021/11/06 03:56:15;;;;;;;22.20;11.65;;;;;;;8.50;97.65;102762.22;4975100;28;20039;-66
2021/11/06 03:58:41;;;;;;;22.52;10.68;;;;;;;8.53;97.84;102759.56;4975226;28;20030;-65
2021/11/06 04:01:06;;;;;;;18.75;10.82;;;;;;;8.57;97.49;102758.66;4975109;28;20027;-65
2021/11/06 04:03:31;;;;;;;22.83;11.52;;;;;;;8.57;97.54;102765.69;4971607;28;20043;-65
2021/11/06 04:05:57;;;;;;;22.08;11.38;;;;;;;8.58;97.76;102760.44;4970984;28;20023;-64
2021/11/06 04:08:22;;;;;;;24.23;11.30;;;;;;;8.59;97.66;102762.16;4955637;29;20031;-65
2021/11/06 04:10:47;;;;;;;18.98;10.35;;;;;;;8.60;97.46;102757.78;4955635;29;20102;-65
2021/11/06 04:13:13;;;;;;;20.05;10.90;;;;;;;8.64;97.44;102757.72;4938980;29;20051;-66
2021/11/06 04:15:40;;;;;;;22.67;11.52;;;;;;;8.66;97.87;102758.59;4956935;28;20027;-66
2021/11/06 04:18:05;;;;;;;24.02;11.73;;;;;;;8.68;97.83;102763.88;4955380;29;20026;-64
2021/11/06 04:20:31;;;;;;;24.45;11.95;;;;;;;8.69;97.96;102769.13;4955581;29;20035;-65
2021/11/06 04:22:56;;;;;;;20.08;11.73;;;;;;;8.74;97.46;102761.19;4955845;29;20031;-65
2021/11/06 04:25:21;;;;;;;21.50;10.88;;;;;;;8.74;97.43;102766.47;4957307;28;20472;-65
2021/11/06 04:27:47;;;;;;;25.48;11.68;;;;;;;8.75;97.29;102767.38;4955381;29;20361;-64
2021/11/06 04:30:12;;;;;;;21.52;12.10;;;;;;;8.79;97.75;102787.59;4955455;29;20023;-65
2021/11/06 04:32:38;;;;;;;26.90;12.10;;;;;;;8.77;97.55;102770.88;4955289;29;20034;-65
2021/11/06 04:35:03;;;;;;;21.13;11.82;;;;;;;8.80;97.58;102770.88;4956170;28;20102;-65
2021/11/06 04:37:29;;;;;;;20.67;11.65;;;;;;;8.79;97.36;102777.91;4973229;28;20030;-68
2021/11/06 04:39:54;;;;;;;20.83;11.88;;;;;;;8.82;97.06;102774.34;4974217;28;20081;-65
2021/11/06 04:42:20;;;;;;;22.38;11.90;;;;;;;8.83;97.19;102773.47;4974644;28;20110;-65
2021/11/06 04:44:46;;;;;;;19.38;11.82;;;;;;;8.84;97.05;102776.09;4972716;28;20471;-65
2021/11/06 04:47:11;;;;;;;22.92;11.75;;;;;;;8.84;97.55;102772.59;4961732;28;20032;-65
2021/11/06 04:49:37;;;;;;;21.48;11.00;;;;;;;8.83;96.91;102762.91;4955189;29;20447;-65
2021/11/06 04:52:03;;;;;;;25.02;12.10;;;;;;;8.83;96.71;102765.56;4954980;29;20431;-64
2021/11/06 04:54:29;;;;;;;23.20;11.75;;;;;;;8.81;97.10;102765.56;4954827;29;20090;-65
2021/11/06 04:56:54;;;;;;;22.33;12.43;;;;;;;8.83;96.83;102761.13;4956845;28;20039;-64
2021/11/06 04:59:19;;;;;;;23.92;11.73;;;;;;;8.85;97.02;102764.66;4954449;29;20180;-65
2021/11/06 05:01:45;;;;;;;24.58;12.23;;;;;;;8.85;96.94;102755.88;4954480;29;20109;-64
2021/11/06 05:04:10;;;;;;;22.77;11.85;;;;;;;8.84;96.42;102752.31;4954877;29;20047;-64
2021/11/06 05:06:35;;;;;;;20.35;12.05;;;;;;;8.83;96.15;102753.22;4955727;28;20039;-64
2021/11/06 05:09:01;;;;;;;21.58;12.25;;;;;;;8.82;96.86;102738.28;4955881;28;20031;-65
2021/11/06 05:11:26;;;;;;;20.42;11.75;;;;;;;8.82;96.79;102745.28;4954638;29;20360;-65
2021/11/06 05:13:52;;;;;;;20.73;11.95;;;;;;;8.80;96.48;102752.38;4954596;29;20066;-65
2021/11/06 05:16:17;;;;;;;18.17;11.00;;;;;;;8.82;96.46;102742.66;4954507;29;20110;-65
2021/11/06 05:18:43;;;;;;;19.98;11.35;;;;;;;8.82;96.06;102759.41;4958049;28;20042;-65
2021/11/06 05:21:08;;;;;;;21.60;10.52;;;;;;;8.80;96.54;102765.59;4973890;28;20027;-65
2021/11/06 05:23:33;;;;;;;18.13;10.55;;;;;;;8.79;96.29;102751.47;4973944;28;20038;-65
2021/11/06 05:25:59;;;;;;;19.05;11.57;;;;;;;8.77;95.93;102758.56;4972018;28;20482;-65
2021/11/06 05:28:24;;;;;;;19.48;10.88;;;;;;;8.75;96.35;102770.03;4972088;28;20034;-64
2021/11/06 05:30:50;;;;;;;23.30;11.32;;;;;;;8.74;96.40;102768.25;4973739;28;20035;-65
2021/11/06 05:33:16;;;;;;;21.65;10.68;;;;;;;8.73;95.71;102764.72;4974046;28;20054;-65
2021/11/06 05:35:41;;;;;;;21.42;10.43;;;;;;;8.72;96.13;102762.09;4972210;28;20031;-65
2021/11/06 05:38:06;;;;;;;21.80;11.15;;;;;;;8.70;96.00;102764.75;4972346;28;20375;-65
2021/11/06 05:40:32;;;;;;;20.20;11.13;;;;;;;8.72;95.90;102768.28;4973577;28;20386;-65
2021/11/06 05:42:58;;;;;;;19.52;10.90;;;;;;;8.72;96.21;102772.66;4972111;28;20058;-68
2021/11/06 05:45:24;;;;;;;21.20;11.18;;;;;;;8.71;95.88;102768.25;4973476;28;20043;-66
2021/11/06 05:47:50;;;;;;;22.88;11.18;;;;;;;8.68;95.99;102769.16;4956364;28;20047;-66
2021/11/06 05:50:16;;;;;;;22.55;11.25;;;;;;;8.67;95.99;102756.81;4972337;28;20530;-66
2021/11/06 05:52:42;;;;;;;21.75;11.02;;;;;;;8.67;96.24;102763.00;4973673;28;20102;-69
2021/11/06 05:55:10;;;;;;;17.90;11.00;;;;;;;8.66;96.20;102769.16;4972127;28;20458;-66
2021/11/06 05:57:36;;;;;;;21.98;11.82;;;;;;;8.63;96.42;102755.09;4973237;28;20062;-65
2021/11/06 06:00:08;;;;;;;24.88;11.25;;;;;;;8.65;96.53;102755.97;4969836;28;20098;-65
2021/11/06 06:02:34;;;;;;;20.83;11.27;;;;;;;8.64;96.54;102751.59;4954229;29;20035;-65
2021/11/06 06:04:59;;;;;;;24.38;11.32;;;;;;;8.66;96.26;102758.59;4955201;28;20031;-65
2021/11/06 06:07:25;;;;;;;22.13;10.35;;;;;;;8.65;96.35;102753.34;4954176;29;20527;-66
2021/11/06 06:09:50;;;;;;;22.85;11.48;;;;;;;8.64;96.39;102749.81;4954106;29;20391;-68
2021/11/06 06:12:16;;;;;;;27.70;10.88;;;;;;;8.63;96.80;102748.06;4956308;28;20027;-65
2021/11/06 06:14:41;;;;;;;20.95;11.73;;;;;;;8.66;96.22;102742.75;4962273;28;20019;-66
2021/11/06 06:17:07;;;;;;;22.77;10.93;;;;;;;8.70;96.34;102738.34;4976654;28;20078;-65
2021/11/06 06:19:33;;;;;;;22.33;12.02;;;;;;;8.66;96.10;102740.13;4974347;28;20033;-65
2021/11/06 06:21:58;;;;;;;19.40;11.63;;;;;;;8.66;96.21;102740.13;4977145;28;20053;-68
2021/11/06 06:24:24;;;;;;;20.20;11.27;;;;;;;8.65;95.99;102735.72;4976782;28;20128;-66
2021/11/06 06:26:50;;;;;;;19.50;11.48;;;;;;;8.64;96.57;102741.00;4975280;28;20117;-68
2021/11/06 06:29:15;;;;;;;23.20;11.80;;;;;;;8.66;96.59;102736.63;4975366;28;20092;-66
2021/11/06 06:31:41;;;;;;;18.95;11.30;;;;;;;8.68;96.47;102743.63;4975208;28;20487;-65
2021/11/06 06:34:06;;;;;;;21.38;11.35;;;;;;;8.67;96.74;102741.88;4976724;28;20027;-67
2021/11/06 06:36:31;;;;;;;22.05;12.40;;;;;;;8.69;96.60;102753.28;4975158;28;20041;-64
2021/11/06 06:38:57;;;;;;;20.45;11.77;;;;;;;8.68;96.17;102741.00;4975292;28;20062;-66
2021/11/06 06:41:22;;;;;;;20.00;11.80;;;;;;;8.66;95.93;102748.03;4975562;28;20467;-66
2021/11/06 06:43:47;;;;;;;19.30;12.27;;;;;;;8.62;96.07;102761.25;4976290;28;20026;-66
2021/11/06 06:46:13;;;;;;;21.38;11.90;;;;;;;8.60;96.37;102760.41;4975736;28;20022;-65
2021/11/06 06:48:38;;;;;;;20.77;11.93;;;;;;;8.52;96.57;102756.03;4959095;28;20070;-65
2021/11/06 06:51:03;;;;;;;24.95;12.48;;;;;;;8.45;97.40;102748.13;4974245;28;20054;-64
2021/11/06 06:53:29;;;;;;;23.55;13.27;;;;;;;8.44;97.56;102749.91;4974203;28;20402;-67
2021/11/06 06:55:54;;;;;;;22.90;12.45;;;;;;;8.46;97.98;102752.56;4973764;28;20125;-63
2021/11/06 06:58:20;;;;;;;19.95;12.50;;;;;;;8.47;97.30;102749.91;4965508;28;20464;-65
2021/11/06 07:00:45;;;;;;;23.05;13.23;;;;;;;8.50;97.89;102754.28;4974331;28;20027;-65
2021/11/06 07:03:11;;;;;;;22.40;12.57;;;;;;;8.53;97.83;102755.16;4976003;28;20090;-65
2021/11/06 07:05:36;;;;;;;22.00;12.48;;;;;;;8.59;97.39;102754.22;4973975;28;20032;-66
2021/11/06 07:08:04;;;;;;;19.33;11.90;;;;;;;8.63;97.10;102752.47;4963386;28;20034;-64
2021/11/06 07:10:29;;;;;;;20.15;12.23;;;;;;;8.68;97.45;102759.50;4973877;28;20027;-65
2021/11/06 07:12:55;;;;;;;20.00;11.35;;;;;;;8.70;97.49;102751.53;4973983;28;20447;-63
2021/11/06 07:15:20;;;;;;;21.88;10.75;;;;;;;8.73;96.77;102750.66;4975423;28;20038;-64
2021/11/06 07:17:45;;;;;;;21.52;12.20;;;;;;;8.75;96.53;102759.44;4974948;28;20027;-65
2021/11/06 07:20:11;;;;;;;23.15;12.05;;;;;;;8.75;96.86;102760.31;4971762;28;20458;-64
2021/11/06 07:22:37;;;;;;;20.27;11.60;;;;;;;8.81;96.50;102767.31;4971013;28;20023;-65
2021/11/06 07:25:04;;;;;;;19.27;10.50;;;;;;;8.83;96.09;102758.50;4975062;28;20073;-64
2021/11/06 07:27:31;;;;;;;18.92;11.18;;;;;;;8.88;95.93;102754.97;4973968;28;20027;-64
2021/11/06 07:29:57;;;;;;;18.27;10.93;;;;;;;8.91;95.69;102754.94;4973696;28;20475;-64
2021/11/06 07:32:23;;;;;;;19.15;10.32;;;;;;;8.96;95.68;102747.84;4973469;28;20027;-64
2021/11/06 07:34:48;;;;;;;17.02;10.35;;;;;;;9.01;95.38;102760.16;4974603;28;20436;-65
2021/11/06 07:37:13;;;;;;;17.17;9.82;;;;;;;9.06;94.64;102768.03;4972825;28;20066;-64
2021/11/06 07:39:39;;;;;;;17.88;10.23;;;;;;;9.06;94.47;102767.16;4973179;28;20117;-64
2021/11/06 07:42:04;;;;;;;22.77;11.23;;;;;;;9.07;94.27;102761.84;4969258;28;20547;-64
2021/11/06 07:44:29;;;;;;;20.25;11.10;;;;;;;9.12;94.36;102751.25;4973997;28;20035;-65
2021/11/06 07:46:55;;;;;;;31.10;12.50;;;;;;;9.12;94.14;102749.47;4975247;28;20038;-64
2021/11/06 07:49:20;;;;;;;20.48;10.93;;;;;;;9.19;94.37;102758.22;4973149;28;20066;-65
2021/11/06 07:51:46;;;;;;;18.35;10.05;;;;;;;9.27;93.69;102752.88;4973347;28;20538;-64
2021/11/06 07:54:12;;;;;;;27.88;11.30;;;;;;;9.29;93.47;102756.41;4962462;28;20795;-67
2021/11/06 07:56:38;;;;;;;16.20;9.38;;;;;;;9.27;93.15;102760.81;4974596;28;20042;-65
2021/11/06 07:59:05;;;;;;;17.17;9.13;;;;;;;9.24;92.96;102752.91;4969977;28;20423;-65
2021/11/06 08:01:30;;;;;;;16.95;9.10;;;;;;;9.22;92.64;102749.41;4975319;28;20467;-65
2021/11/06 08:03:56;;;;;;;15.25;8.43;;;;;;;9.21;92.88;102756.47;4974313;28;20100;-64
2021/11/06 08:06:21;;;;;;;21.30;9.48;;;;;;;9.21;92.77;102743.25;4974847;28;20030;-65
2021/11/06 08:08:47;;;;;;;22.25;9.65;;;;;;;9.24;92.84;102742.34;4975330;28;20122;-63
2021/11/06 08:11:12;;;;;;;19.45;9.27;;;;;;;9.22;93.13;102752.94;4974523;28;20031;-66
2021/11/06 08:13:38;;;;;;;17.58;8.68;;;;;;;9.24;92.97;102747.63;4973893;28;20142;-65
2021/11/06 08:16:03;;;;;;;21.27;8.32;;;;;;;9.30;92.46;102750.22;4974019;28;20026;-65
2021/11/06 08:18:29;;;;;;;22.42;9.05;;;;;;;9.39;91.80;102744.84;4974758;28;20391;-65
2021/11/06 08:20:55;;;;;;;13.98;7.00;;;;;;;9.43;91.48;102746.56;4974122;28;20023;-65
2021/11/06 08:23:21;;;;;;;15.75;7.40;;;;;;;9.44;91.37;102745.69;4974890;28;20034;-65
2021/11/06 08:25:47;;;;;;;14.70;6.90;;;;;;;9.46;91.02;102746.56;4962808;28;20027;-65
2021/11/06 08:28:13;;;;;;;11.93;6.60;;;;;;;9.50;90.75;102748.28;4959128;28;20039;-65
2021/11/06 08:30:39;;;;;;;18.38;7.88;;;;;;;9.50;90.76;102748.28;4966069;28;20023;-65
2021/11/06 08:33:04;;;;;;;15.05;7.57;;;;;;;9.56;90.93;102749.97;4973210;28;20026;-65
2021/11/06 08:35:30;;;;;;;14.60;6.82;;;;;;;9.62;90.42;102743.75;4959002;28;20039;-65
2021/11/06 08:37:58;;;;;;;14.35;7.68;;;;;;;9.64;90.03;102745.50;4955265;29;20097;-63
2021/11/06 08:40:25;;;;;;;16.90;7.22;;;;;;;9.77;89.82;102743.59;4954964;29;20038;-63
2021/11/06 08:42:50;;;;;;;14.77;6.63;;;;;;;9.84;89.05;102742.59;4955452;29;20027;-66
2021/11/06 08:45:16;;;;;;;15.98;7.10;;;;;;;9.88;88.92;102751.41;4953789;29;20516;-66
2021/11/06 08:47:42;;;;;;;12.77;7.03;;;;;;;9.97;88.58;102747.78;4960410;28;20019;-66
2021/11/06 08:50:13;;;;;;;11.00;5.40;;;;;;;10.03;88.63;102747.72;4974347;28;20038;-65
2021/11/06 08:52:39;;;;;;;;;;;;;;;10.11;87.99;102756.41;4975035;28;20093;-67
2021/11/06 08:55:06;;;;;;;14.73;6.05;;;;;;;10.11;87.78;102756.41;4971692;28;19986;-67
2021/11/06 08:57:37;;;;;;;17.02;6.10;;;;;;;10.13;87.61;102743.19;4967820;28;20015;-68
2021/11/06 09:00:06;;;;;;;14.17;6.13;;;;;;;10.14;87.85;102748.47;4941368;29;20126;-68
2021/11/06 09:02:34;;;;;;;11.05;5.20;;;;;;;10.18;87.66;102741.34;4966044;28;20781;-66
2021/11/06 09:05:00;;;;;;;16.50;5.88;;;;;;;10.20;87.65;102750.13;4960603;28;20041;-66
2021/11/06 09:07:26;;;;;;;17.02;8.35;;;;;;;10.17;87.96;102743.09;4960736;28;20086;-66
2021/11/06 09:09:57;;;;;;;12.10;5.55;;;;;;;10.18;88.68;102733.41;4971373;28;20062;-65
2021/11/06 09:12:22;;;;;;;13.07;5.25;;;;;;;10.23;87.18;102718.34;4960891;28;20030;-66
2021/11/06 09:14:47;;;;;;;11.30;5.35;;;;;;;10.26;87.05;102735.97;4972791;28;20038;-66
2021/11/06 09:17:13;;;;;;;8.93;5.13;;;;;;;10.28;86.82;102734.16;4973041;28;20041;-70
2021/11/06 09:19:38;;;;;;;12.95;5.43;;;;;;;10.24;87.53;102724.50;4974073;28;20046;-67
2021/11/06 09:22:04;;;;;;;14.50;5.88;;;;;;;10.22;87.68;102727.19;4968142;28;20035;-68
2021/11/06 09:24:30;;;;;;;16.88;6.57;;;;;;;10.19;87.51;102726.34;4960214;28;20109;-66
2021/11/06 09:26:55;;;;;;;15.65;6.30;;;;;;;10.14;87.57;102724.63;4973528;28;20114;-65
2021/11/06 09:29:21;;;;;;;11.27;5.55;;;;;;;10.10;87.87;102716.75;4973105;28;20110;-65
2021/11/06 09:31:46;;;;;;;33.75;9.35;;;;;;;10.13;87.96;102716.72;4957041;28;20580;-70
2021/11/06 09:34:12;;;;;;;13.77;6.50;;;;;;;10.15;87.44;102710.50;4968976;28;20090;-66
2021/11/06 09:36:38;;;;;;;16.10;6.13;;;;;;;10.17;87.42;102708.69;4954473;29;20118;-66
2021/11/06 09:39:07;;;;;;;11.57;5.55;;;;;;;10.26;87.49;102720.94;4938589;29;20042;-66
2021/11/06 09:41:33;;;;;;;11.02;5.60;;;;;;;10.29;86.90;102714.72;4954168;29;20100;-67
2021/11/06 09:44:00;;;;;;;15.98;6.53;;;;;;;10.22;87.11;102723.63;4954484;29;20057;-66
2021/11/06 09:46:26;;;;;;;16.13;6.82;;;;;;;10.18;87.67;102733.41;4956618;28;20031;-66
2021/11/06 09:48:52;;;;;;;23.88;7.40;;;;;;;10.15;87.36;102728.13;4959340;28;20538;-66
2021/11/06 09:51:19;;;;;;;16.67;5.75;;;;;;;10.18;86.40;102728.13;4958108;29;20023;-67
2021/11/06 09:53:47;;;;;;;38.60;9.80;;;;;;;10.17;86.96;102721.94;4958428;29;20090;-66
2021/11/06 09:56:23;;;;;;;18.25;6.75;;;;;;;10.17;86.49;102727.22;4958841;28;20067;-67
2021/11/06 09:58:49;;;;;;;10.48;5.53;;;;;;;10.24;86.38;102724.50;4959239;28;20046;-67
2021/11/06 10:01:15;;;;;;;20.25;6.25;;;;;;;10.28;86.57;102719.16;4958030;29;20031;-66
2021/11/06 10:03:40;;;;;;;8.50;4.70;;;;;;;10.23;86.56;102720.09;4957867;29;20575;-66
2021/11/06 10:06:15;;;;;;;11.18;5.47;;;;;;;10.22;85.70;102719.25;4958802;28;20023;-66
2021/11/06 10:08:41;;;;;;;11.35;5.65;;;;;;;10.16;86.33;102711.38;4957786;28;20091;-66
2021/11/06 10:11:09;;;;;;;8.13;5.00;;;;;;;10.14;86.53;102718.44;4958871;28;20472;-66
2021/11/06 10:14:02;;;;;;;10.93;4.93;;;;;;;10.09;87.35;102713.22;4957640;29;20037;-67
2021/11/06 10:16:33;;;;;;;12.48;5.45;;;;;;;10.05;87.35;102702.69;4958474;28;20115;-67
2021/11/06 10:19:11;;;;;;;12.20;5.18;;;;;;;10.10;86.75;102714.09;4957878;29;20114;-66
2021/11/06 10:21:39;;;;;;;10.80;5.28;;;;;;;10.10;86.84;102714.97;4958843;28;20073;-66
2021/11/06 10:24:05;;;;;;;10.32;5.40;;;;;;;10.12;87.12;102723.75;4957531;29;20023;-67
2021/11/06 10:26:31;;;;;;;11.68;5.72;;;;;;;10.16;86.57;102706.94;4957483;29;20391;-67
2021/11/06 10:29:02;;;;;;;15.05;5.43;;;;;;;10.22;86.55;102715.69;4972819;28;20031;-66
2021/11/06 10:31:27;;;;;;;10.30;5.22;;;;;;;10.24;86.31;102711.25;4975049;28;20102;-66
2021/11/06 10:33:53;;;;;;;11.90;5.10;;;;;;;10.27;85.93;102714.75;4976971;28;20121;-66
2021/11/06 10:36:27;;;;;;;14.70;5.05;;;;;;;10.27;85.85;102700.66;4976529;28;20033;-66
2021/11/06 10:39:09;;;;;;;12.27;6.20;;;;;;;10.32;85.70;102707.63;4974917;28;20026;-67
2021/11/06 10:41:40;;;;;;;16.38;5.90;;;;;;;10.37;85.37;102704.94;4974916;28;20475;-66
2021/11/06 10:44:06;;;;;;;10.23;5.32;;;;;;;10.38;85.95;102700.53;4976672;28;20038;-67
2021/11/06 10:46:33;;;;;;;11.23;5.72;;;;;;;10.45;86.05;102688.94;4976417;28;20019;-67
2021/11/06 10:48:59;;;;;;;9.10;5.03;;;;;;;10.50;85.33;102700.34;4975155;28;20026;-67
2021/11/06 10:51:25;;;;;;;11.38;5.10;;;;;;;10.58;84.78;102703.75;4975948;28;20045;-67
2021/11/06 10:53:54;;;;;;;10.05;5.30;;;;;;;10.71;84.19;102698.28;4956931;29;20028;-67
2021/11/06 10:56:21;;;;;;;10.70;4.63;;;;;;;10.83;84.72;102687.47;4956694;29;20369;-70
2021/11/06 10:58:49;;;;;;;8.60;4.80;;;;;;;10.91;83.85;102696.19;4956105;28;20415;-66
2021/11/06 11:01:39;;;;;;;9.20;5.03;;;;;;;11.10;83.57;102695.84;4958079;28;20094;-66
2021/11/06 11:04:10;;;;;;;13.25;6.10;;;;;;;11.29;82.58;102683.16;4957180;28;20053;-67
2021/11/06 11:06:40;;;;;;;8.38;4.93;;;;;;;11.53;81.50;102681.81;4956621;29;20030;-66
2021/11/06 11:09:11;;;;;;;8.60;5.20;;;;;;;11.58;80.88;102671.97;4956679;29;20121;-66
2021/11/06 11:11:38;;;;;;;11.52;5.15;;;;;;;11.54;80.75;102677.41;4957749;28;20031;-66
2021/11/06 11:14:12;;;;;;;10.95;5.97;;;;;;;11.55;81.25;102676.50;4958036;28;20031;-67
2021/11/06 11:16:40;;;;;;;11.25;4.85;;;;;;;11.67;80.64;102659.44;4956811;29;20106;-67